Terminal Aerodrome Forecast
Issued by NWS

Home | Current Version | Previous Version | Text Only | Print | Product List | Glossary On
Versions: 1 2 3 4 5 6 7 8 9 10 11 12 13 14 15
000
FTUS44 KEPZ 300209 AAA
TAFDMN
TAF AMD
KDMN 300209Z 3002/3024 34010G18KT P6SM FEW110 BKN250
     FM300500 06006KT P6SM FEW100 SCT250
     FM301700 14008KT P6SM FEW080 SCT250=

USA.gov is the U.S. government's official web portal to all federal, state and local government web resources and services.